Terminal Aerodrome Forecast
Issued by NWS Wilmington, OH

Current Version | Previous Version | Graphics & Text | Print | Product List | Glossary On
Versions: 1 2 3 4 5 6 7 8 9 10 11 12 13 14 15
266
FTUS41 KILN 231730
TAFCMH
TAF
KCMH 231730Z 2318/2418 15012G22KT P6SM BKN060
     FM231900 13012G20KT P6SM VCSH OVC050
     FM232200 12010KT 5SM -SHRA OVC035
     FM240600 10012KT P6SM VCSH OVC035
     FM241400 10012KT 5SM -SHRA OVC015=

USA.gov is the U.S. government's official web portal to all federal, state and local government web resources and services.